sensor_id;sensor_type;location;lat;lon;timestamp;P1;durP1;ratioP1;P2;durP2;ratioP2
12171;SDS011;6149;52.418;13.668;2023-06-22T00:00:35;24.67;;;22.47;;
12171;SDS011;6149;52.418;13.668;2023-06-22T00:03:10;22.67;;;20.67;;
12171;SDS011;6149;52.418;13.668;2023-06-22T00:05:40;25.27;;;23.03;;
12171;SDS011;6149;52.418;13.668;2023-06-22T00:08:08;23.10;;;21.07;;
12171;SDS011;6149;52.418;13.668;2023-06-22T00:10:35;24.23;;;22.10;;
12171;SDS011;6149;52.418;13.668;2023-06-22T00:13:04;22.90;;;20.90;;
12171;SDS011;6149;52.418;13.668;2023-06-22T00:15:34;24.23;;;21.93;;
12171;SDS011;6149;52.418;13.668;2023-06-22T00:18:04;24.13;;;21.93;;
12171;SDS011;6149;52.418;13.668;2023-06-22T00:20:37;22.43;;;20.23;;
12171;SDS011;6149;52.418;13.668;2023-06-22T00:23:06;23.53;;;21.43;;
12171;SDS011;6149;52.418;13.668;2023-06-22T00:25:36;23.30;;;21.20;;
12171;SDS011;6149;52.418;13.668;2023-06-22T00:28:08;22.10;;;20.10;;
12171;SDS011;6149;52.418;13.668;2023-06-22T00:30:35;23.67;;;21.53;;
12171;SDS011;6149;52.418;13.668;2023-06-22T00:33:02;23.20;;;20.73;;
12171;SDS011;6149;52.418;13.668;2023-06-22T00:35:34;23.00;;;20.97;;
12171;SDS011;6149;52.418;13.668;2023-06-22T00:38:03;22.70;;;20.70;;
12171;SDS011;6149;52.418;13.668;2023-06-22T00:40:30;22.70;;;20.77;;
12171;SDS011;6149;52.418;13.668;2023-06-22T00:42:57;23.57;;;21.43;;
12171;SDS011;6149;52.418;13.668;2023-06-22T00:45:26;23.90;;;21.73;;
12171;SDS011;6149;52.418;13.668;2023-06-22T00:47:53;23.60;;;21.40;;
12171;SDS011;6149;52.418;13.668;2023-06-22T00:50:26;24.00;;;21.70;;
12171;SDS011;6149;52.418;13.668;2023-06-22T00:52:58;23.53;;;21.33;;
12171;SDS011;6149;52.418;13.668;2023-06-22T00:55:32;23.93;;;21.80;;
12171;SDS011;6149;52.418;13.668;2023-06-22T00:58:00;25.33;;;23.00;;
12171;SDS011;6149;52.418;13.668;2023-06-22T01:00:27;25.03;;;22.63;;
12171;SDS011;6149;52.418;13.668;2023-06-22T01:02:54;24.10;;;21.80;;
12171;SDS011;6149;52.418;13.668;2023-06-22T01:05:22;24.60;;;22.40;;
12171;SDS011;6149;52.418;13.668;2023-06-22T01:07:56;24.50;;;22.30;;
12171;SDS011;6149;52.418;13.668;2023-06-22T01:10:36;25.57;;;23.07;;
12171;SDS011;6149;52.418;13.668;2023-06-22T01:13:13;23.27;;;21.10;;
12171;SDS011;6149;52.418;13.668;2023-06-22T01:15:49;24.27;;;21.97;;
12171;SDS011;6149;52.418;13.668;2023-06-22T01:18:24;24.33;;;22.13;;
12171;SDS011;6149;52.418;13.668;2023-06-22T01:20:57;23.80;;;21.60;;
12171;SDS011;6149;52.418;13.668;2023-06-22T01:23:27;24.20;;;21.87;;
12171;SDS011;6149;52.418;13.668;2023-06-22T01:26:08;25.90;;;23.30;;
12171;SDS011;6149;52.418;13.668;2023-06-22T01:28:50;25.37;;;22.93;;
12171;SDS011;6149;52.418;13.668;2023-06-22T01:31:22;23.27;;;21.17;;
12171;SDS011;6149;52.418;13.668;2023-06-22T01:33:53;24.90;;;22.50;;
12171;SDS011;6149;52.418;13.668;2023-06-22T01:36:26;25.83;;;23.43;;
12171;SDS011;6149;52.418;13.668;2023-06-22T01:38:53;24.10;;;21.80;;
12171;SDS011;6149;52.418;13.668;2023-06-22T01:41:21;25.50;;;23.10;;
12171;SDS011;6149;52.418;13.668;2023-06-22T01:43:53;23.60;;;21.50;;
12171;SDS011;6149;52.418;13.668;2023-06-22T01:46:21;23.83;;;21.67;;
12171;SDS011;6149;52.418;13.668;2023-06-22T01:48:50;24.30;;;22.00;;
12171;SDS011;6149;52.418;13.668;2023-06-22T01:51:17;23.30;;;21.10;;
12171;SDS011;6149;52.418;13.668;2023-06-22T01:53:45;24.73;;;22.43;;
12171;SDS011;6149;52.418;13.668;2023-06-22T01:56:14;24.30;;;22.07;;
12171;SDS011;6149;52.418;13.668;2023-06-22T01:58:45;24.67;;;22.37;;
12171;SDS011;6149;52.418;13.668;2023-06-22T02:01:23;23.53;;;21.17;;
12171;SDS011;6149;52.418;13.668;2023-06-22T02:03:58;23.53;;;21.47;;
12171;SDS011;6149;52.418;13.668;2023-06-22T02:06:31;22.50;;;20.60;;
12171;SDS011;6149;52.418;13.668;2023-06-22T02:09:06;23.40;;;21.20;;
12171;SDS011;6149;52.418;13.668;2023-06-22T02:11:38;23.53;;;21.43;;
12171;SDS011;6149;52.418;13.668;2023-06-22T02:14:11;22.30;;;20.20;;
12171;SDS011;6149;52.418;13.668;2023-06-22T02:16:40;21.60;;;19.70;;
12171;SDS011;6149;52.418;13.668;2023-06-22T02:19:10;21.30;;;19.40;;
12171;SDS011;6149;52.418;13.668;2023-06-22T02:21:36;23.47;;;21.23;;
12171;SDS011;6149;52.418;13.668;2023-06-22T02:24:05;21.93;;;20.03;;
12171;SDS011;6149;52.418;13.668;2023-06-22T02:26:33;23.37;;;21.07;;
12171;SDS011;6149;52.418;13.668;2023-06-22T02:29:01;22.73;;;20.73;;
12171;SDS011;6149;52.418;13.668;2023-06-22T02:31:29;21.47;;;19.57;;
12171;SDS011;6149;52.418;13.668;2023-06-22T02:33:56;21.73;;;19.83;;
12171;SDS011;6149;52.418;13.668;2023-06-22T02:36:23;23.43;;;21.20;;
12171;SDS011;6149;52.418;13.668;2023-06-22T02:38:51;22.90;;;20.90;;
12171;SDS011;6149;52.418;13.668;2023-06-22T02:41:21;23.80;;;21.60;;
12171;SDS011;6149;52.418;13.668;2023-06-22T02:43:49;22.23;;;20.10;;
12171;SDS011;6149;52.418;13.668;2023-06-22T02:46:15;22.97;;;20.83;;
12171;SDS011;6149;52.418;13.668;2023-06-22T02:48:43;23.60;;;21.40;;
12171;SDS011;6149;52.418;13.668;2023-06-22T02:51:11;21.60;;;19.80;;
12171;SDS011;6149;52.418;13.668;2023-06-22T02:53:39;21.27;;;19.47;;
12171;SDS011;6149;52.418;13.668;2023-06-22T02:56:10;23.67;;;21.50;;
12171;SDS011;6149;52.418;13.668;2023-06-22T02:58:41;20.73;;;18.83;;
12171;SDS011;6149;52.418;13.668;2023-06-22T03:01:09;21.83;;;19.73;;
12171;SDS011;6149;52.418;13.668;2023-06-22T03:03:39;22.07;;;20.17;;
12171;SDS011;6149;52.418;13.668;2023-06-22T03:06:13;21.60;;;19.57;;
12171;SDS011;6149;52.418;13.668;2023-06-22T03:08:41;23.73;;;21.43;;
12171;SDS011;6149;52.418;13.668;2023-06-22T03:11:08;25.70;;;22.93;;
12171;SDS011;6149;52.418;13.668;2023-06-22T03:13:38;24.57;;;22.27;;
12171;SDS011;6149;52.418;13.668;2023-06-22T03:16:05;26.00;;;23.63;;
12171;SDS011;6149;52.418;13.668;2023-06-22T03:18:34;26.27;;;23.80;;
12171;SDS011;6149;52.418;13.668;2023-06-22T03:21:03;24.03;;;21.93;;
12171;SDS011;6149;52.418;13.668;2023-06-22T03:23:30;25.13;;;22.77;;
12171;SDS011;6149;52.418;13.668;2023-06-22T03:25:56;24.27;;;22.13;;
12171;SDS011;6149;52.418;13.668;2023-06-22T03:28:25;23.40;;;21.20;;
12171;SDS011;6149;52.418;13.668;2023-06-22T03:30:52;23.07;;;20.80;;
12171;SDS011;6149;52.418;13.668;2023-06-22T03:33:18;24.53;;;22.33;;
12171;SDS011;6149;52.418;13.668;2023-06-22T03:35:45;24.17;;;22.03;;
12171;SDS011;6149;52.418;13.668;2023-06-22T03:38:14;24.87;;;22.63;;
12171;SDS011;6149;52.418;13.668;2023-06-22T03:40:42;25.23;;;22.83;;
12171;SDS011;6149;52.418;13.668;2023-06-22T03:43:10;24.53;;;22.20;;
12171;SDS011;6149;52.418;13.668;2023-06-22T03:45:36;24.73;;;22.50;;
12171;SDS011;6149;52.418;13.668;2023-06-22T03:48:11;25.43;;;23.13;;
12171;SDS011;6149;52.418;13.668;2023-06-22T03:50:39;23.33;;;21.23;;
12171;SDS011;6149;52.418;13.668;2023-06-22T03:53:10;24.57;;;22.47;;
12171;SDS011;6149;52.418;13.668;2023-06-22T03:55:47;25.53;;;23.30;;
12171;SDS011;6149;52.418;13.668;2023-06-22T03:58:16;25.80;;;23.43;;
12171;SDS011;6149;52.418;13.668;2023-06-22T04:00:44;24.80;;;22.57;;
12171;SDS011;6149;52.418;13.668;2023-06-22T04:03:11;26.47;;;24.17;;
12171;SDS011;6149;52.418;13.668;2023-06-22T04:05:38;25.13;;;22.97;;
12171;SDS011;6149;52.418;13.668;2023-06-22T04:08:14;24.87;;;22.53;;
12171;SDS011;6149;52.418;13.668;2023-06-22T04:10:44;28.27;;;25.37;;
12171;SDS011;6149;52.418;13.668;2023-06-22T04:13:12;25.83;;;23.53;;
12171;SDS011;6149;52.418;13.668;2023-06-22T04:15:40;23.73;;;21.53;;
12171;SDS011;6149;52.418;13.668;2023-06-22T04:18:06;25.20;;;22.80;;
12171;SDS011;6149;52.418;13.668;2023-06-22T04:20:36;27.13;;;24.50;;
12171;SDS011;6149;52.418;13.668;2023-06-22T04:23:05;27.23;;;24.60;;
12171;SDS011;6149;52.418;13.668;2023-06-22T04:25:33;27.83;;;25.03;;
12171;SDS011;6149;52.418;13.668;2023-06-22T04:28:03;23.87;;;21.87;;
12171;SDS011;6149;52.418;13.668;2023-06-22T04:30:39;26.83;;;24.23;;
12171;SDS011;6149;52.418;13.668;2023-06-22T04:33:13;24.10;;;22.07;;
12171;SDS011;6149;52.418;13.668;2023-06-22T04:35:41;26.67;;;24.20;;
12171;SDS011;6149;52.418;13.668;2023-06-22T04:38:12;26.17;;;23.53;;
12171;SDS011;6149;52.418;13.668;2023-06-22T04:40:40;21.33;;;19.47;;
12171;SDS011;6149;52.418;13.668;2023-06-22T04:43:20;19.93;;;18.33;;
12171;SDS011;6149;52.418;13.668;2023-06-22T04:45:46;19.73;;;18.00;;
12171;SDS011;6149;52.418;13.668;2023-06-22T04:48:17;20.40;;;18.33;;
12171;SDS011;6149;52.418;13.668;2023-06-22T04:50:44;18.27;;;16.57;;
12171;SDS011;6149;52.418;13.668;2023-06-22T04:53:12;17.33;;;15.73;;
12171;SDS011;6149;52.418;13.668;2023-06-22T04:55:41;15.93;;;14.50;;
12171;SDS011;6149;52.418;13.668;2023-06-22T04:58:15;16.27;;;14.80;;
12171;SDS011;6149;52.418;13.668;2023-06-22T05:00:41;14.67;;;13.47;;
12171;SDS011;6149;52.418;13.668;2023-06-22T05:03:11;15.20;;;13.80;;
12171;SDS011;6149;52.418;13.668;2023-06-22T05:05:43;13.50;;;12.20;;
12171;SDS011;6149;52.418;13.668;2023-06-22T05:08:11;14.20;;;12.70;;
12171;SDS011;6149;52.418;13.668;2023-06-22T05:10:40;13.37;;;12.07;;
12171;SDS011;6149;52.418;13.668;2023-06-22T05:13:07;12.97;;;11.67;;
12171;SDS011;6149;52.418;13.668;2023-06-22T05:15:36;11.33;;;10.33;;
12171;SDS011;6149;52.418;13.668;2023-06-22T05:18:14;11.77;;;10.67;;
12171;SDS011;6149;52.418;13.668;2023-06-22T05:20:42;12.10;;;10.90;;
12171;SDS011;6149;52.418;13.668;2023-06-22T05:23:12;11.83;;;10.83;;
12171;SDS011;6149;52.418;13.668;2023-06-22T05:25:40;12.07;;;10.83;;
12171;SDS011;6149;52.418;13.668;2023-06-22T05:28:06;12.73;;;11.57;;
12171;SDS011;6149;52.418;13.668;2023-06-22T05:30:40;11.43;;;10.40;;
12171;SDS011;6149;52.418;13.668;2023-06-22T05:33:08;11.33;;;10.30;;
12171;SDS011;6149;52.418;13.668;2023-06-22T05:35:39;12.10;;;11.00;;
12171;SDS011;6149;52.418;13.668;2023-06-22T05:38:08;12.37;;;11.10;;
12171;SDS011;6149;52.418;13.668;2023-06-22T05:40:37;12.37;;;11.17;;
12171;SDS011;6149;52.418;13.668;2023-06-22T05:43:06;11.80;;;10.70;;
12171;SDS011;6149;52.418;13.668;2023-06-22T05:45:36;11.17;;;10.10;;
12171;SDS011;6149;52.418;13.668;2023-06-22T05:48:14;10.93;;;9.83;;
12171;SDS011;6149;52.418;13.668;2023-06-22T05:50:42;9.97;;;9.17;;
12171;SDS011;6149;52.418;13.668;2023-06-22T05:53:10;10.70;;;9.60;;
12171;SDS011;6149;52.418;13.668;2023-06-22T05:55:38;10.97;;;9.97;;
12171;SDS011;6149;52.418;13.668;2023-06-22T05:58:14;10.60;;;9.60;;
12171;SDS011;6149;52.418;13.668;2023-06-22T06:00:47;11.23;;;10.17;;
12171;SDS011;6149;52.418;13.668;2023-06-22T06:03:14;10.50;;;9.50;;
12171;SDS011;6149;52.418;13.668;2023-06-22T06:05:42;10.77;;;9.27;;
12171;SDS011;6149;52.418;13.668;2023-06-22T06:08:11;10.37;;;9.30;;
12171;SDS011;6149;52.418;13.668;2023-06-22T06:10:41;10.40;;;9.30;;
12171;SDS011;6149;52.418;13.668;2023-06-22T06:13:11;10.23;;;8.83;;
12171;SDS011;6149;52.418;13.668;2023-06-22T06:15:39;9.20;;;8.50;;
12171;SDS011;6149;52.418;13.668;2023-06-22T06:18:10;9.27;;;8.33;;
12171;SDS011;6149;52.418;13.668;2023-06-22T06:20:41;8.53;;;7.70;;
12171;SDS011;6149;52.418;13.668;2023-06-22T06:23:10;8.60;;;7.80;;
12171;SDS011;6149;52.418;13.668;2023-06-22T06:25:37;9.53;;;8.00;;
12171;SDS011;6149;52.418;13.668;2023-06-22T06:28:06;8.33;;;7.63;;
12171;SDS011;6149;52.418;13.668;2023-06-22T06:30:37;7.93;;;7.13;;
12171;SDS011;6149;52.418;13.668;2023-06-22T06:33:04;7.87;;;7.07;;
12171;SDS011;6149;52.418;13.668;2023-06-22T06:35:36;8.53;;;7.70;;
12171;SDS011;6149;52.418;13.668;2023-06-22T06:38:09;7.70;;;6.93;;
12171;SDS011;6149;52.418;13.668;2023-06-22T06:40:41;7.57;;;6.80;;
12171;SDS011;6149;52.418;13.668;2023-06-22T06:43:11;8.53;;;6.93;;
12171;SDS011;6149;52.418;13.668;2023-06-22T06:45:41;6.43;;;5.83;;
12171;SDS011;6149;52.418;13.668;2023-06-22T06:48:08;7.00;;;6.37;;
12171;SDS011;6149;52.418;13.668;2023-06-22T06:50:36;7.17;;;6.50;;
12171;SDS011;6149;52.418;13.668;2023-06-22T06:53:03;5.60;;;5.10;;
12171;SDS011;6149;52.418;13.668;2023-06-22T06:55:32;6.17;;;5.43;;
12171;SDS011;6149;52.418;13.668;2023-06-22T06:58:00;6.93;;;5.23;;
12171;SDS011;6149;52.418;13.668;2023-06-22T07:00:29;7.03;;;5.40;;
12171;SDS011;6149;52.418;13.668;2023-06-22T07:02:55;5.60;;;5.00;;
12171;SDS011;6149;52.418;13.668;2023-06-22T07:05:23;5.90;;;4.87;;
12171;SDS011;6149;52.418;13.668;2023-06-22T07:07:52;5.47;;;4.97;;
12171;SDS011;6149;52.418;13.668;2023-06-22T07:10:19;5.67;;;5.17;;
12171;SDS011;6149;52.418;13.668;2023-06-22T07:12:46;6.13;;;5.43;;
12171;SDS011;6149;52.418;13.668;2023-06-22T07:15:13;5.93;;;5.43;;
12171;SDS011;6149;52.418;13.668;2023-06-22T07:17:41;6.00;;;5.40;;
12171;SDS011;6149;52.418;13.668;2023-06-22T07:20:11;5.90;;;5.40;;
12171;SDS011;6149;52.418;13.668;2023-06-22T07:22:39;5.93;;;5.40;;
12171;SDS011;6149;52.418;13.668;2023-06-22T07:25:12;6.20;;;5.60;;
12171;SDS011;6149;52.418;13.668;2023-06-22T07:27:44;6.40;;;5.90;;
12171;SDS011;6149;52.418;13.668;2023-06-22T07:30:14;6.10;;;5.60;;
12171;SDS011;6149;52.418;13.668;2023-06-22T07:32:42;7.93;;;5.33;;
12171;SDS011;6149;52.418;13.668;2023-06-22T07:35:09;6.20;;;5.60;;
12171;SDS011;6149;52.418;13.668;2023-06-22T07:37:37;5.60;;;5.10;;
12171;SDS011;6149;52.418;13.668;2023-06-22T07:40:07;5.70;;;5.20;;
12171;SDS011;6149;52.418;13.668;2023-06-22T07:42:41;5.30;;;4.80;;
12171;SDS011;6149;52.418;13.668;2023-06-22T07:45:14;5.77;;;4.70;;
12171;SDS011;6149;52.418;13.668;2023-06-22T07:47:42;4.17;;;3.77;;
12171;SDS011;6149;52.418;13.668;2023-06-22T07:50:09;4.77;;;4.27;;
12171;SDS011;6149;52.418;13.668;2023-06-22T07:52:36;4.70;;;4.30;;
12171;SDS011;6149;52.418;13.668;2023-06-22T07:55:03;4.67;;;4.13;;
12171;SDS011;6149;52.418;13.668;2023-06-22T07:57:32;6.63;;;4.23;;
12171;SDS011;6149;52.418;13.668;2023-06-22T07:59:59;3.97;;;3.67;;
12171;SDS011;6149;52.418;13.668;2023-06-22T08:02:26;4.40;;;4.00;;
12171;SDS011;6149;52.418;13.668;2023-06-22T08:04:53;4.53;;;4.13;;
12171;SDS011;6149;52.418;13.668;2023-06-22T08:07:21;4.80;;;4.30;;
12171;SDS011;6149;52.418;13.668;2023-06-22T08:09:49;4.20;;;3.80;;
12171;SDS011;6149;52.418;13.668;2023-06-22T08:12:15;5.10;;;4.70;;
12171;SDS011;6149;52.418;13.668;2023-06-22T08:14:45;4.70;;;4.30;;
12171;SDS011;6149;52.418;13.668;2023-06-22T08:17:13;4.23;;;3.83;;
12171;SDS011;6149;52.418;13.668;2023-06-22T08:19:41;4.17;;;3.77;;
12171;SDS011;6149;52.418;13.668;2023-06-22T08:22:09;4.87;;;4.03;;
12171;SDS011;6149;52.418;13.668;2023-06-22T08:24:42;4.03;;;3.63;;
12171;SDS011;6149;52.418;13.668;2023-06-22T08:27:12;5.63;;;3.60;;
12171;SDS011;6149;52.418;13.668;2023-06-22T08:29:43;4.20;;;3.90;;
12171;SDS011;6149;52.418;13.668;2023-06-22T08:32:14;5.23;;;3.93;;
12171;SDS011;6149;52.418;13.668;2023-06-22T08:34:42;4.50;;;3.63;;
12171;SDS011;6149;52.418;13.668;2023-06-22T08:37:11;4.93;;;3.70;;
12171;SDS011;6149;52.418;13.668;2023-06-22T08:39:39;3.63;;;3.30;;
12171;SDS011;6149;52.418;13.668;2023-06-22T08:42:07;3.97;;;3.57;;
12171;SDS011;6149;52.418;13.668;2023-06-22T08:44:38;3.93;;;3.57;;
12171;SDS011;6149;52.418;13.668;2023-06-22T08:47:07;3.70;;;3.40;;
12171;SDS011;6149;52.418;13.668;2023-06-22T08:49:52;3.67;;;3.37;;
12171;SDS011;6149;52.418;13.668;2023-06-22T08:52:20;4.70;;;3.77;;
12171;SDS011;6149;52.418;13.668;2023-06-22T08:54:49;4.20;;;3.87;;
12171;SDS011;6149;52.418;13.668;2023-06-22T08:57:16;5.17;;;3.50;;
12171;SDS011;6149;52.418;13.668;2023-06-22T08:59:43;4.93;;;3.70;;
12171;SDS011;6149;52.418;13.668;2023-06-22T09:02:11;4.13;;;3.50;;
12171;SDS011;6149;52.418;13.668;2023-06-22T09:04:37;3.90;;;3.50;;
12171;SDS011;6149;52.418;13.668;2023-06-22T09:07:07;3.63;;;3.33;;
12171;SDS011;6149;52.418;13.668;2023-06-22T09:09:36;3.57;;;3.27;;
12171;SDS011;6149;52.418;13.668;2023-06-22T09:12:04;3.50;;;2.90;;
12171;SDS011;6149;52.418;13.668;2023-06-22T09:14:40;5.77;;;3.37;;
12171;SDS011;6149;52.418;13.668;2023-06-22T09:17:12;3.67;;;3.37;;
12171;SDS011;6149;52.418;13.668;2023-06-22T09:19:42;3.50;;;3.20;;
12171;SDS011;6149;52.418;13.668;2023-06-22T09:22:10;3.10;;;2.80;;
12171;SDS011;6149;52.418;13.668;2023-06-22T09:24:39;4.43;;;3.10;;
12171;SDS011;6149;52.418;13.668;2023-06-22T09:27:10;3.07;;;2.70;;
12171;SDS011;6149;52.418;13.668;2023-06-22T09:29:37;2.73;;;2.50;;
12171;SDS011;6149;52.418;13.668;2023-06-22T09:32:07;3.60;;;3.30;;
12171;SDS011;6149;52.418;13.668;2023-06-22T09:34:36;3.33;;;3.03;;
12171;SDS011;6149;52.418;13.668;2023-06-22T09:37:08;3.27;;;2.97;;
12171;SDS011;6149;52.418;13.668;2023-06-22T09:39:37;3.87;;;3.50;;
12171;SDS011;6149;52.418;13.668;2023-06-22T09:42:07;3.87;;;3.13;;
12171;SDS011;6149;52.418;13.668;2023-06-22T09:44:36;2.90;;;2.60;;
12171;SDS011;6149;52.418;13.668;2023-06-22T09:47:03;3.73;;;3.07;;
12171;SDS011;6149;52.418;13.668;2023-06-22T09:49:33;3.13;;;2.70;;
12171;SDS011;6149;52.418;13.668;2023-06-22T09:51:59;3.33;;;2.77;;
12171;SDS011;6149;52.418;13.668;2023-06-22T09:54:27;3.33;;;2.77;;
12171;SDS011;6149;52.418;13.668;2023-06-22T09:56:54;3.30;;;3.00;;
12171;SDS011;6149;52.418;13.668;2023-06-22T09:59:22;3.30;;;3.00;;
12171;SDS011;6149;52.418;13.668;2023-06-22T10:01:50;3.77;;;3.47;;
12171;SDS011;6149;52.418;13.668;2023-06-22T10:04:17;5.10;;;3.40;;
12171;SDS011;6149;52.418;13.668;2023-06-22T10:06:44;3.93;;;3.27;;
12171;SDS011;6149;52.418;13.668;2023-06-22T10:09:12;3.93;;;3.43;;
12171;SDS011;6149;52.418;13.668;2023-06-22T10:11:43;3.70;;;3.40;;
12171;SDS011;6149;52.418;13.668;2023-06-22T10:14:11;4.43;;;3.60;;
12171;SDS011;6149;52.418;13.668;2023-06-22T10:16:37;3.50;;;3.20;;
12171;SDS011;6149;52.418;13.668;2023-06-22T10:19:06;4.17;;;3.50;;
12171;SDS011;6149;52.418;13.668;2023-06-22T10:21:33;3.50;;;3.20;;
12171;SDS011;6149;52.418;13.668;2023-06-22T10:23:59;3.50;;;3.20;;
12171;SDS011;6149;52.418;13.668;2023-06-22T10:26:31;5.60;;;3.40;;
12171;SDS011;6149;52.418;13.668;2023-06-22T10:28:59;3.87;;;3.33;;
12171;SDS011;6149;52.418;13.668;2023-06-22T10:31:27;3.80;;;3.40;;
12171;SDS011;6149;52.418;13.668;2023-06-22T10:33:54;3.77;;;3.23;;
12171;SDS011;6149;52.418;13.668;2023-06-22T10:36:21;3.70;;;3.40;;
12171;SDS011;6149;52.418;13.668;2023-06-22T10:38:50;4.07;;;3.77;;
12171;SDS011;6149;52.418;13.668;2023-06-22T10:41:17;5.67;;;3.53;;
12171;SDS011;6149;52.418;13.668;2023-06-22T10:43:44;4.30;;;3.03;;
12171;SDS011;6149;52.418;13.668;2023-06-22T10:46:17;3.70;;;3.40;;
12171;SDS011;6149;52.418;13.668;2023-06-22T10:48:46;4.17;;;3.77;;
12171;SDS011;6149;52.418;13.668;2023-06-22T10:51:14;3.90;;;3.43;;
12171;SDS011;6149;52.418;13.668;2023-06-22T10:53:44;3.73;;;3.43;;
12171;SDS011;6149;52.418;13.668;2023-06-22T10:56:12;4.03;;;3.37;;
12171;SDS011;6149;52.418;13.668;2023-06-22T10:58:41;3.80;;;3.50;;
12171;SDS011;6149;52.418;13.668;2023-06-22T11:01:08;3.73;;;3.43;;
12171;SDS011;6149;52.418;13.668;2023-06-22T11:03:38;3.43;;;3.13;;
12171;SDS011;6149;52.418;13.668;2023-06-22T11:06:08;4.53;;;3.17;;
12171;SDS011;6149;52.418;13.668;2023-06-22T11:08:37;4.73;;;3.27;;
12171;SDS011;6149;52.418;13.668;2023-06-22T11:11:05;4.63;;;3.57;;
12171;SDS011;6149;52.418;13.668;2023-06-22T11:13:32;3.73;;;3.40;;
12171;SDS011;6149;52.418;13.668;2023-06-22T11:15:59;4.13;;;3.47;;
12171;SDS011;6149;52.418;13.668;2023-06-22T11:18:25;4.10;;;3.57;;
12171;SDS011;6149;52.418;13.668;2023-06-22T11:20:53;3.50;;;3.20;;
12171;SDS011;6149;52.418;13.668;2023-06-22T11:23:20;4.07;;;3.63;;
12171;SDS011;6149;52.418;13.668;2023-06-22T11:25:46;4.03;;;3.40;;
12171;SDS011;6149;52.418;13.668;2023-06-22T11:28:14;3.97;;;3.67;;
12171;SDS011;6149;52.418;13.668;2023-06-22T11:30:42;4.37;;;3.80;;
12171;SDS011;6149;52.418;13.668;2023-06-22T11:33:13;4.20;;;3.80;;
12171;SDS011;6149;52.418;13.668;2023-06-22T11:35:42;4.23;;;3.70;;
12171;SDS011;6149;52.418;13.668;2023-06-22T11:38:13;4.17;;;3.87;;
12171;SDS011;6149;52.418;13.668;2023-06-22T11:40:41;3.83;;;3.50;;
12171;SDS011;6149;52.418;13.668;2023-06-22T11:43:08;3.83;;;3.53;;
12171;SDS011;6149;52.418;13.668;2023-06-22T11:45:41;3.93;;;3.53;;
12171;SDS011;6149;52.418;13.668;2023-06-22T11:48:07;4.63;;;4.23;;
12171;SDS011;6149;52.418;13.668;2023-06-22T11:50:37;4.17;;;3.87;;
12171;SDS011;6149;52.418;13.668;2023-06-22T11:53:08;4.73;;;3.87;;
12171;SDS011;6149;52.418;13.668;2023-06-22T11:55:38;4.13;;;3.73;;
12171;SDS011;6149;52.418;13.668;2023-06-22T11:58:09;4.03;;;3.70;;
12171;SDS011;6149;52.418;13.668;2023-06-22T12:00:36;4.17;;;3.87;;
12171;SDS011;6149;52.418;13.668;2023-06-22T12:03:03;4.43;;;4.07;;
12171;SDS011;6149;52.418;13.668;2023-06-22T12:05:30;5.83;;;3.87;;
12171;SDS011;6149;52.418;13.668;2023-06-22T12:07:57;4.73;;;4.40;;
12171;SDS011;6149;52.418;13.668;2023-06-22T12:10:25;4.27;;;3.97;;
12171;SDS011;6149;52.418;13.668;2023-06-22T12:12:54;4.63;;;4.30;;
12171;SDS011;6149;52.418;13.668;2023-06-22T12:15:22;4.83;;;4.43;;
12171;SDS011;6149;52.418;13.668;2023-06-22T12:17:51;4.73;;;4.23;;
12171;SDS011;6149;52.418;13.668;2023-06-22T12:20:17;4.40;;;4.00;;
12171;SDS011;6149;52.418;13.668;2023-06-22T12:22:44;4.80;;;4.40;;
12171;SDS011;6149;52.418;13.668;2023-06-22T12:25:13;4.70;;;4.30;;
12171;SDS011;6149;52.418;13.668;2023-06-22T12:27:41;5.50;;;4.37;;
12171;SDS011;6149;52.418;13.668;2023-06-22T12:30:09;5.43;;;4.90;;
12171;SDS011;6149;52.418;13.668;2023-06-22T12:32:45;5.23;;;4.80;;
12171;SDS011;6149;52.418;13.668;2023-06-22T12:35:13;4.47;;;4.07;;
12171;SDS011;6149;52.418;13.668;2023-06-22T12:37:43;4.20;;;3.90;;
12171;SDS011;6149;52.418;13.668;2023-06-22T12:40:11;5.17;;;4.13;;
12171;SDS011;6149;52.418;13.668;2023-06-22T12:42:44;6.00;;;4.53;;
12171;SDS011;6149;52.418;13.668;2023-06-22T12:45:18;6.93;;;4.47;;
12171;SDS011;6149;52.418;13.668;2023-06-22T12:47:47;4.90;;;4.40;;
12171;SDS011;6149;52.418;13.668;2023-06-22T12:50:15;5.30;;;4.80;;
12171;SDS011;6149;52.418;13.668;2023-06-22T12:52:44;5.57;;;5.00;;
12171;SDS011;6149;52.418;13.668;2023-06-22T12:55:10;6.60;;;4.80;;
12171;SDS011;6149;52.418;13.668;2023-06-22T12:57:39;5.07;;;4.57;;
12171;SDS011;6149;52.418;13.668;2023-06-22T13:00:09;4.83;;;4.43;;
12171;SDS011;6149;52.418;13.668;2023-06-22T13:02:42;5.40;;;5.00;;
12171;SDS011;6149;52.418;13.668;2023-06-22T13:05:10;5.10;;;4.70;;
12171;SDS011;6149;52.418;13.668;2023-06-22T13:07:38;5.00;;;4.50;;
12171;SDS011;6149;52.418;13.668;2023-06-22T13:10:08;4.40;;;3.97;;
12171;SDS011;6149;52.418;13.668;2023-06-22T13:12:36;5.77;;;5.27;;
12171;SDS011;6149;52.418;13.668;2023-06-22T13:15:05;5.80;;;5.30;;
12171;SDS011;6149;52.418;13.668;2023-06-22T13:17:42;6.00;;;5.50;;
12171;SDS011;6149;52.418;13.668;2023-06-22T13:20:10;5.33;;;4.83;;
12171;SDS011;6149;52.418;13.668;2023-06-22T13:22:37;5.30;;;4.90;;
12171;SDS011;6149;52.418;13.668;2023-06-22T13:25:09;6.07;;;5.47;;
12171;SDS011;6149;52.418;13.668;2023-06-22T13:27:45;5.47;;;4.97;;
12171;SDS011;6149;52.418;13.668;2023-06-22T13:30:15;5.07;;;4.67;;
12171;SDS011;6149;52.418;13.668;2023-06-22T13:32:55;5.63;;;5.23;;
12171;SDS011;6149;52.418;13.668;2023-06-22T13:35:21;6.00;;;5.40;;
12171;SDS011;6149;52.418;13.668;2023-06-22T13:37:49;6.33;;;5.77;;
12171;SDS011;6149;52.418;13.668;2023-06-22T13:40:16;5.43;;;4.93;;
12171;SDS011;6149;52.418;13.668;2023-06-22T13:42:44;5.60;;;5.10;;
12171;SDS011;6149;52.418;13.668;2023-06-22T13:45:12;5.93;;;5.43;;
12171;SDS011;6149;52.418;13.668;2023-06-22T13:47:38;6.27;;;5.40;;
12171;SDS011;6149;52.418;13.668;2023-06-22T13:50:10;5.60;;;5.10;;
12171;SDS011;6149;52.418;13.668;2023-06-22T13:52:38;5.10;;;4.60;;
12171;SDS011;6149;52.418;13.668;2023-06-22T13:55:09;5.37;;;4.80;;
12171;SDS011;6149;52.418;13.668;2023-06-22T13:57:40;6.63;;;5.17;;
12171;SDS011;6149;52.418;13.668;2023-06-22T14:00:10;5.60;;;5.20;;
12171;SDS011;6149;52.418;13.668;2023-06-22T14:02:40;5.37;;;4.97;;
12171;SDS011;6149;52.418;13.668;2023-06-22T14:05:15;5.63;;;5.23;;
12171;SDS011;6149;52.418;13.668;2023-06-22T14:07:43;5.30;;;4.87;;
12171;SDS011;6149;52.418;13.668;2023-06-22T14:10:10;5.80;;;5.30;;
12171;SDS011;6149;52.418;13.668;2023-06-22T14:12:39;5.47;;;5.07;;
12171;SDS011;6149;52.418;13.668;2023-06-22T14:15:08;6.00;;;5.33;;
12171;SDS011;6149;52.418;13.668;2023-06-22T14:17:37;6.27;;;5.70;;
12171;SDS011;6149;52.418;13.668;2023-06-22T14:20:05;5.90;;;5.50;;
12171;SDS011;6149;52.418;13.668;2023-06-22T14:22:35;6.10;;;5.50;;
12171;SDS011;6149;52.418;13.668;2023-06-22T14:25:04;5.60;;;5.20;;
12171;SDS011;6149;52.418;13.668;2023-06-22T14:27:33;6.30;;;5.70;;
12171;SDS011;6149;52.418;13.668;2023-06-22T14:29:59;5.87;;;5.47;;
12171;SDS011;6149;52.418;13.668;2023-06-22T14:32:27;6.63;;;6.03;;
12171;SDS011;6149;52.418;13.668;2023-06-22T14:34:54;6.03;;;5.50;;
12171;SDS011;6149;52.418;13.668;2023-06-22T14:37:23;6.60;;;6.00;;
12171;SDS011;6149;52.418;13.668;2023-06-22T14:39:52;6.20;;;5.70;;
12171;SDS011;6149;52.418;13.668;2023-06-22T14:42:19;6.40;;;5.80;;
12171;SDS011;6149;52.418;13.668;2023-06-22T14:44:48;5.77;;;5.37;;
12171;SDS011;6149;52.418;13.668;2023-06-22T14:47:15;5.80;;;5.30;;
12171;SDS011;6149;52.418;13.668;2023-06-22T14:49:44;5.60;;;5.03;;